Time;durP1;ratioP1;P1;durP2;ratioP2;P2;SDS_P1;SDS_P2;PMS_P1;PMS_P2;Temp;Humidity;BMP_temperature;BMP_pressure;BME280_temperature;BME280_humidity;BME280_pressure;Samples;Min_cycle;Max_cycle;Signal;HPM_P1;HPM_P2
2021/09/25 00:01:51;;;;;;;1.42;0.55;;;;;;;32.68;21.54;98152.00;5068682;28;20041;-83
2021/09/25 00:04:17;;;;;;;0.75;0.47;;;;;;;32.54;21.73;98147.91;5085647;28;20033;-81
2021/09/25 00:06:43;;;;;;;0.98;0.50;;;;;;;32.62;21.50;98145.44;5060188;28;20510;-81
2021/09/25 00:09:09;;;;;;;0.60;0.40;;;;;;;32.74;21.40;98150.06;5089489;28;20055;-81
2021/09/25 00:11:35;;;;;;;1.15;0.60;;;;;;;32.84;21.08;98142.97;5055976;28;20042;-81
2021/09/25 00:14:02;;;;;;;0.98;0.60;;;;;;;32.92;21.00;98140.50;5056532;28;20094;-81
2021/09/25 00:16:28;;;;;;;1.48;0.70;;;;;;;32.82;21.39;98144.72;5073370;28;20366;-81
2021/09/25 00:18:58;;;;;;;0.57;0.50;;;;;;;32.60;21.81;98142.31;5072856;28;20484;-82
2021/09/25 00:21:26;;;;;;;1.23;0.40;;;;;;;32.54;21.20;98142.22;5072595;28;20120;-81
2021/09/25 00:23:52;;;;;;;1.15;0.47;;;;;;;32.51;21.37;98145.25;5082863;28;20047;-81
2021/09/25 00:26:18;;;;;;;1.40;0.70;;;;;;;32.41;21.00;98141.69;5074047;28;20024;-81
2021/09/25 00:28:45;;;;;;;0.70;0.40;;;;;;;31.89;21.90;98139.63;5083189;28;20039;-81
2021/09/25 00:31:11;;;;;;;1.10;0.45;;;;;;;31.60;22.07;98134.66;5073233;28;20040;-81
2021/09/25 00:33:37;;;;;;;2.47;0.80;;;;;;;31.19;22.32;98135.53;5070560;28;20036;-82
2021/09/25 00:36:04;;;;;;;1.90;0.60;;;;;;;30.85;22.70;98133.94;5063156;28;20025;-81
2021/09/25 00:38:30;;;;;;;5.05;0.85;;;;;;;30.97;22.63;98137.88;5075549;28;20041;-81
2021/09/25 00:40:57;;;;;;;1.63;0.63;;;;;;;31.11;22.90;98134.34;5073126;28;20036;-81
2021/09/25 00:43:23;;;;;;;1.08;0.82;;;;;;;31.44;22.67;98140.75;5072843;28;20124;-81
2021/09/25 00:45:49;;;;;;;2.05;0.93;;;;;;;31.82;22.68;98137.97;5077021;28;20434;-80
2021/09/25 00:48:15;;;;;;;0.88;0.50;;;;;;;31.69;22.86;98150.84;5079429;28;20557;-81
2021/09/25 00:50:42;;;;;;;2.17;0.52;;;;;;;31.83;22.75;98139.53;5075256;28;20104;-82
2021/09/25 00:53:08;;;;;;;1.08;0.60;;;;;;;31.81;22.76;98144.91;5070369;28;20056;-81
2021/09/25 00:55:35;;;;;;;1.75;0.40;;;;;;;31.55;23.14;98143.84;5054184;28;20032;-81
2021/09/25 00:58:04;;;;;;;0.55;0.38;;;;;;;31.80;22.60;98136.88;5044714;28;20397;-80
2021/09/25 01:00:32;;;;;;;1.77;0.70;;;;;;;31.64;22.92;98134.47;5053152;28;20037;-81
2021/09/25 01:02:58;;;;;;;0.85;0.50;;;;;;;31.79;22.52;98133.25;5047720;28;20041;-81
2021/09/25 01:05:24;;;;;;;0.70;0.50;;;;;;;32.17;22.00;98134.50;5052819;28;20064;-80
2021/09/25 01:07:51;;;;;;;1.48;0.38;;;;;;;32.24;21.91;98136.97;5064743;28;20056;-80
2021/09/25 01:10:18;;;;;;;0.75;0.65;;;;;;;32.02;22.54;98138.13;5054072;28;20040;-80
2021/09/25 01:12:45;;;;;;;1.30;0.50;;;;;;;31.95;22.56;98132.78;5053380;28;20036;-81
2021/09/25 01:15:13;;;;;;;0.75;0.50;;;;;;;31.66;22.65;98140.47;5053668;28;20055;-81
2021/09/25 01:17:39;;;;;;;1.10;0.50;;;;;;;32.03;22.47;98131.19;5053195;28;20186;-80
2021/09/25 01:20:08;;;;;;;1.33;0.50;;;;;;;32.04;22.35;98135.56;5052618;28;20123;-81
2021/09/25 01:22:34;;;;;;;1.55;0.50;;;;;;;31.99;22.71;98129.81;5054132;28;20045;-82
2021/09/25 01:25:00;;;;;;;0.77;0.50;;;;;;;32.27;22.06;98122.59;5052354;28;20033;-81
2021/09/25 01:27:27;;;;;;;0.63;0.40;;;;;;;32.39;21.99;98120.72;5050365;28;20091;-81
2021/09/25 01:29:53;;;;;;;2.25;0.45;;;;;;;32.57;21.85;98120.53;5052314;28;20507;-81
2021/09/25 01:32:19;;;;;;;0.60;0.30;;;;;;;32.34;22.34;98127.09;5049939;28;20106;-82
2021/09/25 01:34:45;;;;;;;0.40;0.40;;;;;;;32.14;22.38;98127.00;5050478;28;20037;-81
2021/09/25 01:37:11;;;;;;;2.28;0.50;;;;;;;32.06;22.50;98124.53;5053952;28;20069;-81
2021/09/25 01:39:37;;;;;;;1.73;0.43;;;;;;;32.05;22.65;98127.84;5054309;28;20521;-81
2021/09/25 01:42:04;;;;;;;0.57;0.40;;;;;;;32.02;22.47;98123.91;5053452;28;20037;-81
2021/09/25 01:44:31;;;;;;;0.75;0.50;;;;;;;32.17;22.33;98128.84;5023182;28;20445;-81
2021/09/25 01:46:59;;;;;;;0.80;0.20;;;;;;;32.27;22.12;98124.63;5044228;28;20029;-81
2021/09/25 01:49:26;;;;;;;1.85;0.47;;;;;;;32.25;22.62;98130.03;5056766;28;20074;-81
2021/09/25 01:51:53;;;;;;;0.65;0.40;;;;;;;32.34;22.39;98119.34;5056284;28;20750;-81
2021/09/25 01:54:19;;;;;;;0.57;0.30;;;;;;;32.30;22.56;98126.50;5075001;28;20048;-81
2021/09/25 01:56:46;;;;;;;1.02;0.40;;;;;;;32.07;23.01;98128.94;5074731;28;20028;-81
2021/09/25 01:59:13;;;;;;;3.97;0.40;;;;;;;31.81;23.03;98127.84;5069749;28;20028;-81
2021/09/25 02:01:39;;;;;;;0.38;0.38;;;;;;;32.09;22.54;98128.47;5067252;28;20043;-83
2021/09/25 02:04:05;;;;;;;0.70;0.40;;;;;;;32.05;22.87;98125.00;5070786;28;20032;-81
2021/09/25 02:06:32;;;;;;;0.80;0.52;;;;;;;31.77;23.41;98126.47;5073466;28;20643;-81
2021/09/25 02:08:58;;;;;;;0.40;0.30;;;;;;;31.69;23.10;98120.41;5072696;28;20028;-81
2021/09/25 02:11:24;;;;;;;0.30;0.30;;;;;;;31.79;23.10;98118.25;5078525;28;20063;-81
2021/09/25 02:13:51;;;;;;;0.70;0.40;;;;;;;31.95;22.65;98129.94;5080471;28;20421;-81
2021/09/25 02:16:17;;;;;;;0.60;0.50;;;;;;;31.77;23.04;98121.59;5070661;28;20389;-81
2021/09/25 02:18:43;;;;;;;0.30;0.30;;;;;;;31.83;23.14;98122.50;5073050;28;20063;-81
2021/09/25 02:21:10;;;;;;;0.73;0.38;;;;;;;31.99;22.51;98119.22;5071188;28;20476;-81
2021/09/25 02:23:36;;;;;;;0.88;0.40;;;;;;;32.02;23.10;98126.00;5064162;28;20041;-83
2021/09/25 02:26:04;;;;;;;2.40;0.45;;;;;;;32.00;22.66;98122.84;5068056;28;20154;-81
2021/09/25 02:28:30;;;;;;;0.47;0.30;;;;;;;31.80;22.89;98131.19;5073149;28;20036;-81
2021/09/25 02:30:57;;;;;;;0.40;0.40;;;;;;;31.69;23.16;98122.47;5071348;28;20036;-82
2021/09/25 02:33:24;;;;;;;0.98;0.35;;;;;;;31.47;23.50;98125.63;5070587;28;20041;-81
2021/09/25 02:35:50;;;;;;;0.32;0.30;;;;;;;31.60;23.09;98123.28;5069794;28;20048;-81
2021/09/25 02:38:17;;;;;;;0.38;0.38;;;;;;;31.84;22.74;98129.72;5071735;28;20024;-81
2021/09/25 02:40:44;;;;;;;1.30;0.30;;;;;;;31.80;23.21;98131.19;5071975;28;20029;-81
2021/09/25 02:43:10;;;;;;;0.82;0.38;;;;;;;31.69;23.40;98130.97;5070120;28;20043;-81
2021/09/25 02:45:37;;;;;;;1.02;0.40;;;;;;;31.59;23.50;98121.75;5070313;28;20024;-81
2021/09/25 02:48:03;;;;;;;1.15;0.45;;;;;;;31.60;23.19;98136.72;5065023;28;20044;-81
2021/09/25 02:50:31;;;;;;;1.38;0.60;;;;;;;31.43;23.32;98133.53;5069432;28;20748;-81
2021/09/25 02:52:57;;;;;;;0.40;0.30;;;;;;;31.55;23.50;98141.03;5061641;28;20057;-82
2021/09/25 02:55:23;;;;;;;0.70;0.60;;;;;;;31.72;22.95;98124.31;5049669;28;20033;-81
2021/09/25 02:57:50;;;;;;;2.05;0.40;;;;;;;31.63;23.47;98133.69;5050263;28;20108;-81
2021/09/25 03:00:22;;;;;;;2.45;0.45;;;;;;;31.65;22.85;98142.50;5018766;28;20033;-83
2021/09/25 03:02:49;;;;;;;0.70;0.20;;;;;;;31.69;22.86;98143.13;5023306;28;20033;-82
2021/09/25 03:05:15;;;;;;;0.40;0.40;;;;;;;31.70;22.49;98144.69;5024260;28;20025;-81
2021/09/25 03:07:41;;;;;;;1.15;0.70;;;;;;;31.63;22.31;98142.22;5027664;28;20123;-81
2021/09/25 03:10:08;;;;;;;0.38;0.38;;;;;;;31.74;23.19;98145.28;5035463;28;20029;-81
2021/09/25 03:12:35;;;;;;;1.70;0.40;;;;;;;31.48;22.97;98144.22;5049241;28;20496;-81
2021/09/25 03:15:04;;;;;;;1.20;0.55;;;;;;;31.77;22.15;98138.63;5049315;28;20036;-80
2021/09/25 03:17:30;;;;;;;0.52;0.50;;;;;;;31.96;22.23;98134.41;5058766;28;20029;-80
2021/09/25 03:19:56;;;;;;;0.47;0.47;;;;;;;32.20;21.92;98142.88;5068345;28;20064;-80
2021/09/25 03:22:22;;;;;;;2.25;0.90;;;;;;;32.37;21.74;98137.50;5071331;28;20062;-80
2021/09/25 03:24:48;;;;;;;1.30;0.80;;;;;;;32.24;22.03;98136.97;5070851;28;20093;-80
2021/09/25 03:27:14;;;;;;;0.75;0.50;;;;;;;32.19;22.15;98129.91;5071759;28;20067;-81
2021/09/25 03:29:40;;;;;;;0.93;0.50;;;;;;;31.97;22.38;98143.72;5071132;28;20036;-80
2021/09/25 03:32:06;;;;;;;0.90;0.55;;;;;;;31.91;22.98;98135.03;5066331;28;20094;-80
2021/09/25 03:34:33;;;;;;;1.08;0.50;;;;;;;31.93;22.72;98148.75;5070826;28;20037;-80
2021/09/25 03:36:59;;;;;;;1.15;0.70;;;;;;;31.76;22.13;98148.44;5071321;28;20041;-80
2021/09/25 03:39:25;;;;;;;1.75;0.50;;;;;;;31.70;22.48;98155.25;5072689;28;20545;-80
2021/09/25 03:41:51;;;;;;;0.65;0.40;;;;;;;31.56;23.17;98153.13;5071581;28;20543;-80
2021/09/25 03:44:17;;;;;;;0.68;0.43;;;;;;;31.74;22.91;98159.47;5054320;28;20032;-80
2021/09/25 03:46:43;;;;;;;1.35;0.82;;;;;;;32.14;22.45;98150.47;5068861;28;20024;-81
2021/09/25 03:49:09;;;;;;;1.88;0.57;;;;;;;32.43;22.16;98147.69;5051768;28;20032;-80
2021/09/25 03:51:35;;;;;;;0.85;0.40;;;;;;;32.37;22.36;98146.78;5070853;28;20076;-82
2021/09/25 03:54:01;;;;;;;0.40;0.40;;;;;;;32.19;22.18;98151.84;5083185;28;20135;-80
2021/09/25 03:56:27;;;;;;;0.50;0.40;;;;;;;32.19;22.45;98149.81;5092348;28;20517;-80
2021/09/25 03:58:53;;;;;;;1.02;0.50;;;;;;;32.33;22.51;98146.19;5087535;28;20427;-80
2021/09/25 04:01:20;;;;;;;0.95;0.60;;;;;;;32.06;23.09;98149.31;5088034;28;21163;-81
2021/09/25 04:03:46;;;;;;;1.23;0.50;;;;;;;31.54;23.95;98147.16;5091106;28;20379;-80
2021/09/25 04:06:12;;;;;;;0.70;0.40;;;;;;;31.71;23.60;98154.78;5088725;28;20488;-80
2021/09/25 04:08:38;;;;;;;0.40;0.35;;;;;;;32.03;23.02;98153.91;5089892;28;20109;-80
2021/09/25 04:11:04;;;;;;;1.02;0.63;;;;;;;32.15;22.76;98159.78;5093352;28;20063;-81
2021/09/25 04:13:30;;;;;;;1.67;0.43;;;;;;;32.17;22.45;98155.19;5091696;28;20044;-80
2021/09/25 04:15:56;;;;;;;0.65;0.55;;;;;;;32.35;22.04;98154.25;5093299;28;20101;-80
2021/09/25 04:18:22;;;;;;;0.73;0.40;;;;;;;32.37;22.18;98157.38;5094168;28;20029;-80
2021/09/25 04:20:48;;;;;;;0.68;0.40;;;;;;;32.44;22.44;98163.44;5099559;28;20067;-81
2021/09/25 04:23:14;;;;;;;0.82;0.50;;;;;;;32.54;22.07;98162.09;5093950;28;20078;-80
2021/09/25 04:25:40;;;;;;;0.70;0.40;;;;;;;32.55;22.07;98162.91;5095852;28;20050;-81
2021/09/25 04:28:09;;;;;;;0.80;0.60;;;;;;;32.55;22.29;98168.59;5094579;28;20036;-80
2021/09/25 04:30:40;;;;;;;0.98;0.47;;;;;;;32.25;22.35;98172.66;5092720;28;20067;-81
2021/09/25 04:33:08;;;;;;;0.70;0.50;;;;;;;32.32;22.38;98172.28;5089992;28;20115;-80
2021/09/25 04:35:35;;;;;;;0.93;0.45;;;;;;;32.25;22.74;98176.28;5096799;28;20024;-80
2021/09/25 04:38:01;;;;;;;0.60;0.40;;;;;;;32.18;22.48;98173.81;5097334;28;20028;-80
2021/09/25 04:40:31;;;;;;;0.50;0.40;;;;;;;32.15;22.64;98186.16;5092824;28;20480;-80
2021/09/25 04:42:59;;;;;;;1.77;0.55;;;;;;;32.14;22.98;98181.72;5094966;28;20103;-80
2021/09/25 04:45:26;;;;;;;1.75;0.50;;;;;;;31.72;23.63;98183.94;5094286;28;20044;-80
2021/09/25 04:47:52;;;;;;;0.30;0.30;;;;;;;31.81;23.54;98178.97;5089068;28;20544;-80
2021/09/25 04:50:19;;;;;;;1.75;0.40;;;;;;;31.99;23.08;98184.56;5092920;28;20625;-80
2021/09/25 04:52:46;;;;;;;2.15;0.50;;;;;;;32.18;22.91;98170.19;5093142;28;20131;-81
2021/09/25 04:55:12;;;;;;;1.10;0.40;;;;;;;31.87;23.39;98181.94;5091751;28;20059;-80
2021/09/25 04:57:38;;;;;;;0.52;0.40;;;;;;;32.05;23.20;98179.75;5092179;28;20028;-80
2021/09/25 05:00:06;;;;;;;0.95;0.43;;;;;;;32.28;22.56;98188.75;5085823;28;20395;-80
2021/09/25 05:02:32;;;;;;;0.75;0.40;;;;;;;32.58;22.48;98190.34;5089270;28;20039;-80
2021/09/25 05:04:58;;;;;;;1.30;0.30;;;;;;;32.15;23.16;98186.16;5096001;28;20031;-80
2021/09/25 05:07:24;;;;;;;0.70;0.38;;;;;;;31.84;23.90;98192.22;5093719;28;20032;-80
2021/09/25 05:09:51;;;;;;;1.00;0.40;;;;;;;31.86;23.38;98186.81;5091104;28;20057;-80
2021/09/25 05:12:17;;;;;;;0.63;0.50;;;;;;;31.95;23.17;98191.66;5090226;28;20419;-80
2021/09/25 05:14:43;;;;;;;0.50;0.30;;;;;;;31.92;23.54;98195.47;5092118;28;20495;-80
2021/09/25 05:17:09;;;;;;;1.17;0.50;;;;;;;31.68;24.05;98204.00;5089238;28;20043;-81
2021/09/25 05:19:35;;;;;;;0.52;0.50;;;;;;;31.28;24.66;98207.19;5087201;28;20040;-80
2021/09/25 05:22:01;;;;;;;0.70;0.63;;;;;;;31.17;23.56;98206.94;5091539;28;20127;-81
2021/09/25 05:24:27;;;;;;;1.10;0.60;;;;;;;31.42;24.28;98202.88;5091277;28;20036;-80
2021/09/25 05:26:55;;;;;;;0.98;0.43;;;;;;;31.80;23.56;98208.66;5108427;28;20047;-80
2021/09/25 05:29:23;;;;;;;0.50;0.50;;;;;;;32.16;23.43;98218.19;5087937;28;20032;-78
2021/09/25 05:31:49;;;;;;;1.52;0.50;;;;;;;32.11;23.27;98222.50;5087044;28;20028;-82
2021/09/25 05:34:15;;;;;;;0.77;0.40;;;;;;;31.98;23.54;98219.91;5087719;28;20515;-80
2021/09/25 05:36:41;;;;;;;0.63;0.43;;;;;;;32.01;23.59;98221.00;5091141;28;20510;-81
2021/09/25 05:39:07;;;;;;;0.68;0.50;;;;;;;31.75;24.25;98212.16;5108666;27;20495;-81
2021/09/25 05:41:33;;;;;;;1.10;0.35;;;;;;;31.80;24.42;98213.53;5093035;28;20072;-81
2021/09/25 05:43:59;;;;;;;1.05;0.63;;;;;;;31.73;23.65;98217.53;5093537;28;20066;-81
2021/09/25 05:46:25;;;;;;;0.50;0.30;;;;;;;31.70;23.59;98218.50;5094936;28;20029;-83
2021/09/25 05:48:52;;;;;;;0.85;0.60;;;;;;;31.93;23.13;98214.88;5088601;28;20169;-82
2021/09/25 05:51:19;;;;;;;1.20;0.88;;;;;;;31.72;23.63;98209.47;5087443;28;20049;-82
2021/09/25 05:53:46;;;;;;;1.33;0.52;;;;;;;31.80;23.67;98210.72;5087294;28;20504;-81
2021/09/25 05:56:12;;;;;;;1.95;1.23;;;;;;;32.07;22.93;98211.31;5091641;28;20483;-83
2021/09/25 05:58:39;;;;;;;4.15;0.47;;;;;;;32.25;22.63;98209.59;5086408;28;20044;-82
2021/09/25 06:01:05;;;;;;;1.83;0.47;;;;;;;31.87;23.01;98225.34;5091592;28;20024;-84
2021/09/25 06:03:31;;;;;;;0.93;0.60;;;;;;;31.85;23.08;98212.88;5090717;28;20114;-83
2021/09/25 06:05:57;;;;;;;1.25;0.60;;;;;;;32.03;22.69;98209.94;5093481;28;20089;-83
2021/09/25 06:08:23;;;;;;;0.90;0.50;;;;;;;32.20;22.76;98205.38;5074732;28;20116;-82
2021/09/25 06:10:49;;;;;;;0.70;0.47;;;;;;;32.56;22.15;98207.88;5091492;28;20503;-82
2021/09/25 06:13:16;;;;;;;0.95;0.60;;;;;;;32.28;22.59;98206.56;5089721;28;20032;-83
2021/09/25 06:15:44;;;;;;;1.55;0.70;;;;;;;32.04;23.13;98212.28;5093940;28;20066;-83
2021/09/25 06:18:10;;;;;;;0.90;0.60;;;;;;;31.26;23.72;98217.47;5093681;28;20111;-83
2021/09/25 06:20:36;;;;;;;2.47;0.77;;;;;;;31.26;24.19;98223.13;5090963;28;20032;-83
2021/09/25 06:23:03;;;;;;;2.97;0.68;;;;;;;30.95;24.30;98214.13;5085527;28;20036;-82
2021/09/25 06:25:29;;;;;;;1.55;1.15;;;;;;;31.28;24.01;98226.28;5093048;28;20395;-82
2021/09/25 06:27:55;;;;;;;3.20;0.80;;;;;;;31.37;23.53;98227.00;5084740;28;20032;-83
2021/09/25 06:30:21;;;;;;;0.85;0.60;;;;;;;31.31;23.48;98225.31;5091613;28;20039;-83
2021/09/25 06:32:47;;;;;;;0.55;0.50;;;;;;;31.53;23.63;98225.84;5089850;28;20028;-84
2021/09/25 06:35:15;;;;;;;0.52;0.52;;;;;;;31.66;23.33;98239.81;5090188;28;20036;-83
2021/09/25 06:37:41;;;;;;;2.95;0.82;;;;;;;31.42;23.87;98236.91;5093897;28;20062;-82
2021/09/25 06:40:10;;;;;;;1.35;1.25;;;;;;;30.55;24.82;98237.81;5090983;28;20478;-83
2021/09/25 06:42:37;;;;;;;1.45;0.82;;;;;;;30.60;25.06;98242.84;5087239;28;20039;-82
2021/09/25 06:45:04;;;;;;;3.85;0.93;;;;;;;30.53;24.99;98231.03;5100415;28;20039;-83
2021/09/25 06:47:30;;;;;;;0.85;0.70;;;;;;;30.89;24.86;98245.19;5100172;28;20047;-83
2021/09/25 06:49:56;;;;;;;1.10;0.63;;;;;;;31.85;23.85;98239.22;5084307;28;20037;-83
2021/09/25 06:52:25;;;;;;;1.05;0.70;;;;;;;31.84;23.67;98229.13;5084948;28;20039;-83
2021/09/25 06:54:52;;;;;;;1.13;0.77;;;;;;;31.55;24.13;98237.53;5092268;28;20112;-82
2021/09/25 06:57:18;;;;;;;1.45;0.70;;;;;;;31.93;23.69;98243.25;5089052;28;20036;-82
2021/09/25 06:59:44;;;;;;;0.70;0.70;;;;;;;32.14;23.37;98244.25;5073202;28;20036;-82
2021/09/25 07:02:10;;;;;;;0.88;0.73;;;;;;;32.12;23.65;98246.00;5094999;28;20134;-82
2021/09/25 07:04:36;;;;;;;1.50;0.93;;;;;;;32.11;23.68;98253.75;5092621;28;20024;-82
2021/09/25 07:07:02;;;;;;;1.23;0.70;;;;;;;32.34;23.81;98250.09;5090699;28;20070;-80
2021/09/25 07:09:29;;;;;;;0.70;0.60;;;;;;;32.93;22.85;98253.03;5088833;28;20024;-82
2021/09/25 07:11:55;;;;;;;0.70;0.43;;;;;;;32.94;22.85;98257.41;5089805;28;20495;-81
2021/09/25 07:14:21;;;;;;;1.77;0.85;;;;;;;32.59;22.73;98255.25;5094884;28;20035;-82
2021/09/25 07:16:47;;;;;;;0.82;0.82;;;;;;;32.54;23.35;98263.66;5089420;28;20442;-83
2021/09/25 07:19:13;;;;;;;0.85;0.73;;;;;;;32.75;23.13;98263.31;5081094;28;20062;-81
2021/09/25 07:21:39;;;;;;;0.90;0.80;;;;;;;32.73;22.76;98253.69;5083159;28;20039;-83
2021/09/25 07:24:06;;;;;;;0.98;0.73;;;;;;;32.78;23.32;98261.53;5080177;28;20060;-83
2021/09/25 07:26:32;;;;;;;0.60;0.50;;;;;;;32.76;23.43;98264.09;5084942;28;20515;-83
2021/09/25 07:28:58;;;;;;;1.10;0.52;;;;;;;32.67;23.45;98262.09;5088858;28;20484;-83
2021/09/25 07:31:24;;;;;;;1.13;0.75;;;;;;;32.78;23.59;98266.44;5091542;28;20482;-83
2021/09/25 07:33:50;;;;;;;1.80;0.50;;;;;;;32.94;22.85;98277.34;5087905;28;20515;-83
2021/09/25 07:36:16;;;;;;;0.88;0.68;;;;;;;33.14;22.88;98278.25;5087069;28;20036;-83
2021/09/25 07:38:43;;;;;;;1.08;0.60;;;;;;;33.50;22.54;98284.78;5084767;28;20028;-83
2021/09/25 07:41:09;;;;;;;0.70;0.50;;;;;;;33.31;22.81;98281.38;5084305;28;20392;-84
2021/09/25 07:43:35;;;;;;;1.45;0.50;;;;;;;33.49;22.52;98281.16;5084566;28;20040;-82
2021/09/25 07:46:01;;;;;;;1.23;0.70;;;;;;;33.11;23.28;98289.84;5087593;28;20488;-84
2021/09/25 07:48:28;;;;;;;0.93;0.52;;;;;;;33.54;22.60;98285.41;5088087;28;20095;-84
2021/09/25 07:50:54;;;;;;;0.73;0.60;;;;;;;34.02;22.68;98293.09;5089819;28;20048;-84
2021/09/25 07:53:20;;;;;;;0.60;0.60;;;;;;;34.11;22.49;98291.41;5072080;28;20395;-84
2021/09/25 07:55:46;;;;;;;0.60;0.60;;;;;;;34.06;22.34;98290.06;5085009;28;20036;-83
2021/09/25 07:58:13;;;;;;;0.60;0.43;;;;;;;34.01;22.63;98287.88;5066757;28;20484;-83
2021/09/25 08:00:39;;;;;;;0.65;0.65;;;;;;;33.86;22.98;98287.16;5090502;28;20516;-85
2021/09/25 08:03:05;;;;;;;0.68;0.60;;;;;;;34.27;22.61;98288.00;5078862;28;20041;-84
2021/09/25 08:05:31;;;;;;;1.05;0.82;;;;;;;34.07;22.23;98292.41;5091049;28;20036;-84
2021/09/25 08:07:57;;;;;;;3.13;0.65;;;;;;;34.32;22.74;98288.06;5088390;28;20039;-83
2021/09/25 08:10:23;;;;;;;1.35;0.60;;;;;;;34.35;22.52;98294.84;5092949;28;20442;-84
2021/09/25 08:12:50;;;;;;;0.70;0.63;;;;;;;34.46;22.56;98289.28;5087992;28;20111;-84
2021/09/25 08:15:17;;;;;;;1.17;0.70;;;;;;;34.43;22.30;98284.56;5090982;28;20063;-85
2021/09/25 08:17:44;;;;;;;0.50;0.40;;;;;;;34.30;22.45;98293.50;5091999;28;20556;-84
2021/09/25 08:20:13;;;;;;;0.85;0.57;;;;;;;34.32;22.72;98298.69;5090257;28;20044;-83
2021/09/25 08:22:41;;;;;;;1.02;0.80;;;;;;;34.54;22.62;98301.84;5092450;28;20035;-84
2021/09/25 08:25:08;;;;;;;1.10;0.73;;;;;;;34.74;22.28;98296.91;5086446;28;20035;-83
2021/09/25 08:27:35;;;;;;;0.98;0.50;;;;;;;34.80;22.46;98308.34;5083855;28;20078;-83
2021/09/25 08:30:02;;;;;;;0.75;0.60;;;;;;;34.99;22.54;98311.66;5090837;28;20407;-82
2021/09/25 08:32:28;;;;;;;3.25;0.80;;;;;;;34.29;22.67;98317.56;5089386;28;20040;-82
2021/09/25 08:34:54;;;;;;;1.17;0.70;;;;;;;34.39;23.28;98310.44;5088050;28;20023;-83
2021/09/25 08:37:20;;;;;;;1.25;0.70;;;;;;;34.64;22.87;98315.44;5092659;28;20036;-83
2021/09/25 08:39:46;;;;;;;1.30;0.90;;;;;;;34.14;22.73;98314.03;5088419;28;20036;-83
2021/09/25 08:42:17;;;;;;;1.35;0.70;;;;;;;34.42;23.53;98312.31;5092292;28;20043;-82
2021/09/25 08:44:44;;;;;;;;;;;;;;;33.98;22.76;98314.53;5094044;28;20495;-82
2021/09/25 08:47:10;;;;;;;0.82;0.70;;;;;;;33.57;23.71;98316.50;5091763;28;19931;-82
2021/09/25 08:49:36;;;;;;;0.73;0.73;;;;;;;34.20;23.41;98323.41;5090383;28;20054;-82
2021/09/25 08:52:03;;;;;;;1.75;0.80;;;;;;;34.25;23.23;98322.72;5086888;28;20036;-82
2021/09/25 08:54:29;;;;;;;0.70;0.70;;;;;;;34.11;23.22;98312.16;5088788;28;20076;-82
2021/09/25 08:56:55;;;;;;;0.95;0.90;;;;;;;33.54;23.99;98316.72;5102050;28;20035;-81
2021/09/25 08:59:21;;;;;;;0.73;0.73;;;;;;;34.23;24.13;98325.28;5083596;28;20043;-82
2021/09/25 09:01:48;;;;;;;0.70;0.70;;;;;;;34.51;23.49;98315.00;5086820;28;20109;-82
2021/09/25 09:04:14;;;;;;;0.77;0.73;;;;;;;34.65;22.87;98319.88;5086175;28;20032;-83
2021/09/25 09:06:40;;;;;;;1.75;0.80;;;;;;;34.92;23.01;98321.44;5092075;28;20057;-82
2021/09/25 09:09:08;;;;;;;1.20;0.60;;;;;;;34.50;23.49;98319.13;5088077;28;20040;-83
2021/09/25 09:11:41;;;;;;;1.10;0.82;;;;;;;34.21;23.15;98329.91;5087458;28;20487;-83
2021/09/25 09:14:12;;;;;;;4.45;0.80;;;;;;;34.20;23.64;98326.28;5094310;28;20121;-83
2021/09/25 09:16:38;;;;;;;1.33;0.95;;;;;;;34.37;23.04;98332.97;5092997;28;20036;-84
2021/09/25 09:19:04;;;;;;;1.23;0.90;;;;;;;34.62;24.03;98322.94;5095014;28;20031;-81
2021/09/25 09:21:32;;;;;;;1.13;1.02;;;;;;;35.08;22.99;98320.09;5093857;28;20372;-82
2021/09/25 09:24:01;;;;;;;1.52;0.85;;;;;;;35.05;22.96;98321.09;5089808;28;20085;-81
2021/09/25 09:26:29;;;;;;;0.93;0.77;;;;;;;35.21;22.13;98329.81;5092197;28;20038;-82
2021/09/25 09:28:58;;;;;;;2.35;0.80;;;;;;;35.24;22.52;98322.34;5101524;28;20032;-81
2021/09/25 09:31:24;;;;;;;0.93;0.80;;;;;;;34.59;22.98;98318.22;5080530;28;20081;-80
2021/09/25 09:33:59;;;;;;;0.88;0.80;;;;;;;35.16;22.78;98321.19;5090145;28;20059;-81
2021/09/25 09:36:25;;;;;;;1.15;0.77;;;;;;;35.54;22.52;98314.28;5094264;28;20039;-80
2021/09/25 09:39:03;;;;;;;0.80;0.75;;;;;;;35.69;22.07;98320.63;5108512;28;20034;-80
2021/09/25 09:41:34;;;;;;;0.95;0.75;;;;;;;35.69;22.74;98320.63;5093751;28;20487;-81
2021/09/25 09:44:09;;;;;;;0.90;0.85;;;;;;;35.54;23.04;98315.09;5095206;28;20470;-80
2021/09/25 09:46:45;;;;;;;1.17;1.00;;;;;;;35.53;22.69;98313.50;5087061;28;20527;-80
2021/09/25 09:49:18;;;;;;;1.48;1.10;;;;;;;35.49;22.80;98315.78;5091776;28;20044;-80
2021/09/25 09:51:47;;;;;;;1.45;0.80;;;;;;;35.82;22.63;98309.56;5085634;28;20556;-80
2021/09/25 09:54:16;;;;;;;0.88;0.80;;;;;;;35.86;22.52;98310.09;5086418;28;20055;-80
2021/09/25 09:56:43;;;;;;;1.00;0.90;;;;;;;36.25;21.87;98311.13;5087642;28;20094;-81
2021/09/25 09:59:10;;;;;;;1.05;0.90;;;;;;;36.30;22.22;98306.72;5091940;28;20063;-80
2021/09/25 10:01:38;;;;;;;0.73;0.73;;;;;;;36.45;22.53;98310.22;5088193;28;20036;-81
2021/09/25 10:04:06;;;;;;;3.03;0.90;;;;;;;36.54;21.84;98310.78;5088022;28;20058;-81
2021/09/25 10:06:35;;;;;;;1.52;0.90;;;;;;;36.69;21.44;98310.53;5086671;28;20032;-81
2021/09/25 10:09:06;;;;;;;1.50;0.82;;;;;;;36.74;21.68;98306.91;5084702;28;20032;-81
2021/09/25 10:11:32;;;;;;;1.40;1.00;;;;;;;36.18;21.89;98300.16;5085287;28;20040;-81
2021/09/25 10:14:00;;;;;;;1.85;0.98;;;;;;;35.72;22.33;98305.31;5073055;28;20445;-82
2021/09/25 10:16:27;;;;;;;1.00;0.90;;;;;;;35.70;22.52;98319.34;5095004;28;20024;-81
2021/09/25 10:18:55;;;;;;;1.23;1.02;;;;;;;35.70;22.78;98305.06;5091608;28;20445;-81
2021/09/25 10:21:22;;;;;;;1.30;1.10;;;;;;;35.92;22.19;98308.84;5069462;28;21124;-81
2021/09/25 10:24:02;;;;;;;1.50;1.00;;;;;;;36.06;22.80;98309.97;5085362;28;20082;-81
2021/09/25 10:26:29;;;;;;;2.70;1.02;;;;;;;36.24;21.70;98314.50;5086686;28;20030;-81
2021/09/25 10:28:58;;;;;;;1.58;0.95;;;;;;;36.31;22.36;98311.94;5087328;28;20042;-81
2021/09/25 10:31:25;;;;;;;2.00;1.30;;;;;;;35.92;22.55;98310.91;5091455;28;20499;-81
2021/09/25 10:34:05;;;;;;;1.13;1.00;;;;;;;35.89;22.58;98309.88;5075893;28;20063;-83
2021/09/25 10:36:38;;;;;;;0.98;0.88;;;;;;;36.22;22.34;98314.25;5087171;28;20025;-81
2021/09/25 10:39:39;;;;;;;2.45;1.00;;;;;;;35.83;22.41;98309.03;5070841;28;20044;-81
2021/09/25 10:42:12;;;;;;;1.10;1.00;;;;;;;36.35;22.67;98311.69;5090668;28;20036;-81
2021/09/25 10:44:46;;;;;;;1.50;1.40;;;;;;;36.20;21.71;98309.03;5090498;28;20044;-81
2021/09/25 10:47:24;;;;;;;7.40;1.42;;;;;;;35.96;22.58;98305.75;5092757;28;20044;-81
2021/09/25 10:50:00;;;;;;;2.25;1.20;;;;;;;35.81;22.68;98308.78;5083236;28;20028;-81
2021/09/25 10:53:04;;;;;;;1.27;1.17;;;;;;;36.29;22.57;98313.75;5092582;28;20408;-81
2021/09/25 10:55:30;;;;;;;1.52;1.13;;;;;;;35.93;22.32;98316.13;5095466;28;20066;-82
2021/09/25 10:58:17;;;;;;;1.10;1.00;;;;;;;36.08;22.64;98306.63;5094378;28;20564;-81
2021/09/25 11:00:47;;;;;;;1.27;1.10;;;;;;;35.48;22.89;98311.34;5093972;28;20024;-81
2021/09/25 11:06:19;;;;;;;1.17;1.08;;;;;;;35.93;22.00;98310.41;5096917;28;20036;-81
2021/09/25 11:09:05;;;;;;;1.17;1.00;;;;;;;35.99;22.02;98313.31;5094716;28;20148;-81
2021/09/25 11:11:36;;;;;;;0.80;0.80;;;;;;;36.27;21.75;98305.66;5095332;28;20024;-82
2021/09/25 11:14:02;;;;;;;;;;;;;;;36.15;22.00;98314.72;5096664;28;20040;-82
2021/09/25 11:16:58;;;;;;;1.42;1.10;;;;;;;35.66;22.60;98302.41;5087789;28;19959;-81
2021/09/25 11:19:28;;;;;;;1.48;1.20;;;;;;;35.32;23.01;98306.28;5095617;28;20111;-82
2021/09/25 11:22:14;;;;;;;1.38;1.27;;;;;;;35.54;22.18;98302.88;5083849;28;20028;-81
2021/09/25 11:24:45;;;;;;;1.23;1.13;;;;;;;35.67;22.54;98297.50;5080768;28;20059;-82
2021/09/25 11:27:16;;;;;;;1.17;0.98;;;;;;;35.79;22.48;98297.06;5086440;28;20067;-81
2021/09/25 11:30:01;;;;;;;1.15;1.05;;;;;;;35.70;22.54;98300.13;5088849;28;20040;-82
2021/09/25 11:32:33;;;;;;;2.55;1.25;;;;;;;35.85;22.69;98299.97;5087452;28;20111;-81
2021/09/25 11:35:02;;;;;;;0.98;0.90;;;;;;;36.28;22.17;98295.03;5087179;28;21040;-81
2021/09/25 11:37:29;;;;;;;1.00;1.00;;;;;;;36.36;22.21;98281.81;5089297;28;20033;-81
2021/09/25 11:39:56;;;;;;;1.58;0.93;;;;;;;35.85;22.14;98288.56;5087257;28;20043;-82